Time;durP1;ratioP1;P1;durP2;ratioP2;P2;SDS_P1;SDS_P2;PMS_P1;PMS_P2;Temp;Humidity;BMP_temperature;BMP_pressure;BME280_temperature;BME280_humidity;BME280_pressure;Samples;Min_cycle;Max_cycle;Signal;HPM_P1;HPM_P2
2022/03/16 00:02:25;;;;;;;41.90;20.55;;;3.40;59.30;;;;;;5052902;28;20026;-84
2022/03/16 00:04:53;;;;;;;39.25;20.73;;;3.20;53.70;;;;;;5049291;28;20036;-84
2022/03/16 00:07:19;;;;;;;47.95;22.50;;;3.20;46.10;;;;;;5034301;28;20064;-84
2022/03/16 00:09:45;;;;;;;42.85;21.90;;;3.30;65.10;;;;;;5049830;28;20036;-84
2022/03/16 00:12:12;;;;;;;42.95;21.27;;;3.40;99.90;;;;;;5032454;28;20037;-83
2022/03/16 00:14:38;;;;;;;45.30;21.83;;;3.30;99.00;;;;;;5047959;28;20050;-84
2022/03/16 00:17:04;;;;;;;43.83;20.70;;;3.30;99.90;;;;;;5051831;28;20036;-84
2022/03/16 00:19:31;;;;;;;42.03;22.13;;;3.30;99.90;;;;;;5044698;28;20049;-85
2022/03/16 00:21:58;;;;;;;41.05;20.98;;;3.50;99.90;;;;;;5038221;28;20021;-85
2022/03/16 00:24:24;;;;;;;48.83;23.05;;;3.50;99.90;;;;;;5052183;28;20490;-83
2022/03/16 00:26:50;;;;;;;41.88;20.92;;;3.50;99.90;;;;;;5049731;28;20030;-84
2022/03/16 00:29:15;;;;;;;42.17;20.83;;;3.40;99.90;;;;;;5050956;28;20097;-84
2022/03/16 00:31:41;;;;;;;41.97;21.92;;;3.50;99.90;;;;;;5054608;28;20024;-85
2022/03/16 00:34:06;;;;;;;43.70;21.48;;;3.60;99.90;;;;;;5048960;28;20038;-85
2022/03/16 00:36:32;;;;;;;45.05;22.10;;;3.70;99.90;;;;;;5054455;28;20030;-85
2022/03/16 00:38:58;;;;;;;42.05;21.35;;;3.60;99.90;;;;;;5063263;28;20085;-85
2022/03/16 00:41:23;;;;;;;43.40;22.48;;;3.60;99.90;;;;;;5053645;28;20033;-85
2022/03/16 00:43:49;;;;;;;45.17;21.08;;;3.50;99.90;;;;;;5052539;28;20025;-84
2022/03/16 00:46:15;;;;;;;37.00;19.83;;;3.50;99.90;;;;;;5053675;28;20055;-84
2022/03/16 00:48:40;;;;;;;40.13;20.27;;;3.40;99.90;;;;;;5052611;28;20136;-84
2022/03/16 00:51:08;;;;;;;44.20;20.45;;;3.30;99.90;;;;;;5049635;28;20022;-85
2022/03/16 00:53:34;;;;;;;45.47;21.80;;;3.20;99.90;;;;;;5049171;28;20083;-84
2022/03/16 00:56:01;;;;;;;40.78;20.08;;;3.50;99.90;;;;;;5043973;28;20029;-83
2022/03/16 00:58:27;;;;;;;41.13;20.55;;;3.50;99.90;;;;;;5039540;28;20022;-83
2022/03/16 01:00:53;;;;;;;46.70;21.77;;;3.50;99.90;;;;;;5041102;28;20029;-83
2022/03/16 01:03:19;;;;;;;41.85;20.83;;;3.40;99.90;;;;;;5041830;28;20060;-84
2022/03/16 01:05:46;;;;;;;44.50;20.63;;;3.50;99.90;;;;;;5039077;28;20026;-83
2022/03/16 01:08:12;;;;;;;43.25;20.90;;;3.60;99.90;;;;;;5040858;28;20034;-84
2022/03/16 01:10:38;;;;;;;42.53;20.48;;;3.60;99.90;;;;;;5038021;28;20029;-83
2022/03/16 01:13:04;;;;;;;42.35;22.33;;;3.60;99.90;;;;;;5037500;28;20443;-83
2022/03/16 01:15:30;;;;;;;44.78;21.38;;;3.70;99.90;;;;;;5037286;28;20555;-83
2022/03/16 01:17:55;;;;;;;44.88;22.10;;;3.60;99.90;;;;;;5039256;28;20076;-83
2022/03/16 01:20:21;;;;;;;40.08;21.08;;;3.50;99.90;;;;;;5039496;28;20089;-83
2022/03/16 01:22:47;;;;;;;41.08;20.15;;;3.50;99.90;;;;;;5021245;28;20029;-83
2022/03/16 01:25:12;;;;;;;46.70;22.80;;;3.30;99.90;;;;;;5037738;28;20022;-83
2022/03/16 01:27:38;;;;;;;42.42;21.30;;;3.50;99.90;;;;;;5037068;28;20534;-82
2022/03/16 01:30:05;;;;;;;41.22;20.58;;;3.30;99.90;;;;;;5038778;28;20029;-84
2022/03/16 01:32:31;;;;;;;39.13;21.45;;;3.40;99.90;;;;;;5039228;28;20464;-82
2022/03/16 01:34:56;;;;;;;44.13;21.85;;;3.40;99.90;;;;;;5040054;28;20025;-83
2022/03/16 01:37:22;;;;;;;47.63;24.38;;;3.30;99.90;;;;;;5039077;28;20045;-83
2022/03/16 01:39:48;;;;;;;45.03;22.02;;;3.40;99.90;;;;;;5038921;28;20053;-83
2022/03/16 01:42:14;;;;;;;42.42;22.02;;;3.40;99.90;;;;;;5038113;28;20404;-83
2022/03/16 01:44:46;;;;;;;41.92;21.83;;;3.40;99.90;;;;;;5038669;28;20473;-84
2022/03/16 01:47:13;;;;;;;46.42;21.88;;;3.30;99.90;;;;;;5039169;28;20381;-83
2022/03/16 01:49:39;;;;;;;47.20;22.27;;;3.30;99.90;;;;;;5039385;28;20074;-83
2022/03/16 01:52:06;;;;;;;42.42;22.05;;;3.30;99.90;;;;;;5038282;28;20025;-84
2022/03/16 01:54:32;;;;;;;40.72;21.50;;;3.10;99.90;;;;;;5037569;28;20029;-82
2022/03/16 01:56:58;;;;;;;44.10;20.85;;;3.00;99.90;;;;;;5038052;28;20029;-83
2022/03/16 01:59:23;;;;;;;36.53;18.63;;;2.90;99.90;;;;;;5038171;28;20026;-83
2022/03/16 02:01:49;;;;;;;37.53;19.98;;;2.70;99.90;;;;;;5037982;28;20029;-83
2022/03/16 02:04:15;;;;;;;39.20;20.52;;;2.60;99.90;;;;;;5040418;28;20037;-83
2022/03/16 02:06:41;;;;;;;35.80;19.40;;;2.50;99.90;;;;;;5037500;28;20727;-83
2022/03/16 02:09:07;;;;;;;38.95;20.75;;;2.40;99.90;;;;;;5042198;28;20384;-83
2022/03/16 02:11:33;;;;;;;43.95;20.73;;;2.40;99.90;;;;;;5042066;28;20018;-83
2022/03/16 02:13:58;;;;;;;36.90;20.05;;;2.30;99.90;;;;;;5062457;22;20536;-79
2022/03/16 02:16:24;;;;;;;41.13;21.88;;;2.30;99.90;;;;;;5057753;28;20108;-78
2022/03/16 02:18:49;;;;;;;38.83;19.67;;;2.20;99.90;;;;;;5057699;28;20041;-79
2022/03/16 02:21:16;;;;;;;36.75;20.20;;;2.20;99.90;;;;;;5058491;28;20051;-79
2022/03/16 02:23:42;;;;;;;40.85;20.08;;;2.10;99.90;;;;;;5057267;28;20025;-79
2022/03/16 02:26:12;;;;;;;40.92;20.13;;;2.20;99.90;;;;;;5055958;28;20087;-79
2022/03/16 02:28:38;;;;;;;38.92;20.42;;;2.10;99.90;;;;;;5054163;28;20017;-79
2022/03/16 02:31:04;;;;;;;34.35;20.48;;;2.00;99.90;;;;;;5058297;28;20484;-78
2022/03/16 02:33:30;;;;;;;37.97;19.73;;;2.00;99.90;;;;;;5059230;28;20021;-78
2022/03/16 02:35:56;;;;;;;39.58;20.70;;;2.00;99.90;;;;;;5059359;28;20047;-78
2022/03/16 02:38:22;;;;;;;37.05;19.85;;;2.00;99.90;;;;;;5059050;28;20028;-78
2022/03/16 02:40:56;;;;;;;38.47;20.98;;;2.00;99.90;;;;;;5058597;28;20025;-78
2022/03/16 02:43:21;;;;;;;37.72;21.50;;;2.00;99.90;;;;;;5059915;28;20072;-78
2022/03/16 02:45:47;;;;;;;43.15;20.75;;;2.10;99.90;;;;;;5059505;28;20036;-78
2022/03/16 02:48:12;;;;;;;43.47;21.13;;;2.00;99.90;;;;;;5059570;28;20075;-78
2022/03/16 02:50:38;;;;;;;45.13;22.50;;;2.00;99.90;;;;;;5060609;28;20091;-78
2022/03/16 02:53:04;;;;;;;42.78;21.65;;;2.30;99.90;;;;;;5059665;28;20031;-78
2022/03/16 02:55:41;;;;;;;41.83;20.75;;;2.20;99.90;;;;;;5075122;28;20025;-78
2022/03/16 02:58:07;;;;;;;39.67;21.33;;;2.10;99.90;;;;;;5059901;28;20025;-78
2022/03/16 03:00:33;;;;;;;48.88;23.98;;;2.10;99.90;;;;;;5059844;28;20080;-78
2022/03/16 03:02:59;;;;;;;45.25;22.73;;;2.20;99.90;;;;;;5059071;28;20418;-79
2022/03/16 03:05:25;;;;;;;66.47;26.33;;;2.20;99.90;;;;;;5059394;28;20061;-78
2022/03/16 03:07:50;;;;;;;47.75;24.08;;;2.70;99.90;;;;;;5059327;28;20029;-79
2022/03/16 03:10:16;;;;;;;50.55;24.38;;;2.50;99.90;;;;;;5059983;28;20029;-78
2022/03/16 03:12:42;;;;;;;56.97;26.00;;;2.50;99.90;;;;;;5058819;28;20098;-78
2022/03/16 03:15:10;;;;;;;57.05;26.75;;;2.70;99.90;;;;;;5059893;28;20087;-78
2022/03/16 03:17:36;;;;;;;50.97;26.23;;;2.70;99.90;;;;;;5059661;28;20017;-78
2022/03/16 03:20:02;;;;;;;58.92;26.42;;;2.60;99.90;;;;;;5060050;28;20045;-78
2022/03/16 03:22:28;;;;;;;51.70;25.67;;;2.70;99.90;;;;;;5059787;28;20082;-78
2022/03/16 03:25:11;;;;;;;46.35;24.60;;;2.50;99.90;;;;;;5058610;28;20434;-78
2022/03/16 03:27:36;;;;;;;52.33;26.75;;;2.50;99.90;;;;;;5059734;28;20111;-78
2022/03/16 03:30:03;;;;;;;69.07;29.00;;;2.80;99.90;;;;;;5059535;28;20049;-78
2022/03/16 03:32:29;;;;;;;65.13;30.83;;;3.20;99.90;;;;;;5059769;28;20060;-78
2022/03/16 03:34:55;;;;;;;61.10;30.05;;;3.20;99.90;;;;;;5059793;28;20381;-79
2022/03/16 03:37:22;;;;;;;59.92;28.60;;;3.10;99.90;;;;;;5059093;28;20025;-78
2022/03/16 03:39:59;;;;;;;58.70;27.25;;;2.90;99.90;;;;;;5058473;28;20025;-78
2022/03/16 03:42:25;;;;;;;52.72;27.25;;;2.80;99.90;;;;;;5058884;28;20067;-78
2022/03/16 03:44:50;;;;;;;50.35;25.95;;;2.80;99.90;;;;;;5059080;28;20028;-78
2022/03/16 03:47:16;;;;;;;46.35;25.00;;;2.70;99.90;;;;;;5058993;28;20043;-78
2022/03/16 03:49:42;;;;;;;53.63;27.40;;;2.70;99.90;;;;;;5045375;28;20025;-78
2022/03/16 03:52:08;;;;;;;55.55;26.30;;;2.80;99.90;;;;;;5040682;28;20021;-79
2022/03/16 03:54:35;;;;;;;55.92;26.75;;;2.70;99.90;;;;;;5040135;28;20021;-78
2022/03/16 03:57:01;;;;;;;58.50;27.63;;;2.80;99.90;;;;;;5040338;28;20026;-79
2022/03/16 03:59:26;;;;;;;55.08;27.30;;;2.80;99.90;;;;;;5039686;28;20034;-78
2022/03/16 04:01:52;;;;;;;52.55;26.05;;;2.70;99.90;;;;;;5039861;28;20546;-78
2022/03/16 04:04:18;;;;;;;54.78;27.33;;;2.50;99.90;;;;;;5039800;28;20018;-78
2022/03/16 04:06:44;;;;;;;52.22;26.65;;;2.70;99.90;;;;;;5039122;28;20041;-78
2022/03/16 04:09:10;;;;;;;52.30;26.30;;;2.60;99.90;;;;;;5038297;28;20109;-78
2022/03/16 04:11:36;;;;;;;50.20;26.23;;;2.60;99.90;;;;;;5039519;28;20032;-78
2022/03/16 04:14:02;;;;;;;47.20;25.10;;;2.40;99.90;;;;;;5039172;28;20059;-78
2022/03/16 04:16:28;;;;;;;52.63;26.95;;;2.40;99.90;;;;;;5039211;28;20077;-78
2022/03/16 04:18:54;;;;;;;55.53;26.15;;;2.50;99.90;;;;;;5039830;28;20025;-78
2022/03/16 04:21:20;;;;;;;53.05;26.45;;;2.50;99.90;;;;;;5040391;28;20631;-78
2022/03/16 04:23:46;;;;;;;53.17;26.92;;;2.50;99.90;;;;;;5039234;28;20053;-79
2022/03/16 04:26:11;;;;;;;50.75;25.98;;;2.60;99.90;;;;;;5038802;28;20068;-78
2022/03/16 04:28:37;;;;;;;54.78;27.00;;;2.60;99.90;;;;;;5038030;28;20033;-79
2022/03/16 04:31:03;;;;;;;60.60;28.02;;;2.70;99.90;;;;;;5038628;28;20136;-79
2022/03/16 04:33:30;;;;;;;57.03;27.30;;;2.70;99.90;;;;;;5038857;28;20123;-79
2022/03/16 04:35:55;;;;;;;62.17;30.10;;;2.60;99.90;;;;;;5038523;28;20026;-79
2022/03/16 04:38:21;;;;;;;50.83;27.65;;;2.90;99.90;;;;;;5037968;28;20033;-78
2022/03/16 04:40:47;;;;;;;62.70;26.88;;;2.80;99.90;;;;;;5051066;28;20029;-78
2022/03/16 04:43:13;;;;;;;62.97;28.13;;;2.80;99.90;;;;;;5057770;28;20021;-78
2022/03/16 04:45:39;;;;;;;57.80;28.33;;;2.90;99.90;;;;;;5058503;28;20357;-79
2022/03/16 04:48:11;;;;;;;59.10;27.85;;;2.90;99.90;;;;;;5059490;28;20032;-79
2022/03/16 04:50:38;;;;;;;59.72;28.40;;;2.80;99.90;;;;;;5059849;28;20021;-79
2022/03/16 04:53:04;;;;;;;59.63;27.45;;;2.80;99.90;;;;;;5060818;28;20063;-79
2022/03/16 04:55:30;;;;;;;58.63;28.98;;;2.80;99.90;;;;;;5060974;28;20422;-78
2022/03/16 04:57:55;;;;;;;60.08;28.15;;;2.80;99.90;;;;;;5060617;28;20053;-79
2022/03/16 05:00:21;;;;;;;61.75;28.10;;;2.90;99.90;;;;;;5061321;28;20028;-79
2022/03/16 05:02:47;;;;;;;59.53;29.10;;;2.80;99.90;;;;;;5059942;28;20021;-79
2022/03/16 05:05:13;;;;;;;63.50;27.20;;;2.90;99.90;;;;;;5059827;28;20052;-78
2022/03/16 05:07:39;;;;;;;58.08;26.98;;;2.90;99.90;;;;;;5060148;28;20033;-78
2022/03/16 05:10:06;;;;;;;64.07;29.92;;;2.90;99.90;;;;;;5060954;28;20021;-78
2022/03/16 05:12:42;;;;;;;55.95;27.95;;;2.80;99.90;;;;;;5060631;28;20040;-79
2022/03/16 05:15:13;;;;;;;52.22;27.38;;;2.90;99.90;;;;;;5059958;28;20045;-79
2022/03/16 05:17:39;;;;;;;63.78;28.88;;;2.80;99.90;;;;;;5061357;28;20384;-79
2022/03/16 05:20:06;;;;;;;54.97;26.85;;;2.90;99.90;;;;;;5061730;28;20475;-79
2022/03/16 05:22:39;;;;;;;57.60;27.88;;;2.90;99.90;;;;;;5062097;28;20028;-79
2022/03/16 05:25:06;;;;;;;54.72;27.13;;;2.90;99.90;;;;;;5062509;28;20028;-79
2022/03/16 05:27:31;;;;;;;54.25;28.52;;;2.90;99.90;;;;;;5060662;28;20417;-79
2022/03/16 05:29:57;;;;;;;58.78;27.13;;;3.00;99.90;;;;;;5059538;28;20468;-78
2022/03/16 05:32:22;;;;;;;58.13;27.35;;;3.00;99.90;;;;;;5055314;28;20029;-79
2022/03/16 05:34:48;;;;;;;54.88;26.73;;;2.90;99.90;;;;;;5058031;28;20021;-79
2022/03/16 05:37:13;;;;;;;53.67;27.40;;;2.80;99.90;;;;;;5061077;28;20025;-79
2022/03/16 05:39:39;;;;;;;55.63;28.02;;;2.80;99.90;;;;;;5058755;28;20025;-78
2022/03/16 05:42:05;;;;;;;51.33;25.85;;;2.80;99.90;;;;;;5049392;28;20017;-79
2022/03/16 05:44:31;;;;;;;47.50;25.80;;;2.80;99.90;;;;;;5045076;28;20478;-79
2022/03/16 05:46:57;;;;;;;55.05;26.50;;;2.70;99.90;;;;;;5041197;28;20090;-80
2022/03/16 05:49:25;;;;;;;45.22;24.75;;;2.80;99.90;;;;;;5044333;28;20021;-79
2022/03/16 05:51:51;;;;;;;54.38;27.27;;;2.60;99.90;;;;;;5061244;28;20027;-79
2022/03/16 05:54:17;;;;;;;51.83;25.95;;;2.60;99.90;;;;;;5060469;28;20021;-79
2022/03/16 05:56:42;;;;;;;43.58;24.30;;;2.50;99.90;;;;;;5056901;28;20059;-79
2022/03/16 05:59:08;;;;;;;56.13;26.70;;;2.60;99.90;;;;;;5047791;28;20029;-79
2022/03/16 06:01:34;;;;;;;47.28;25.65;;;2.70;99.90;;;;;;5047720;28;20026;-79
2022/03/16 06:03:59;;;;;;;49.45;26.92;;;2.70;99.90;;;;;;5051484;28;20365;-79
2022/03/16 06:06:26;;;;;;;50.13;25.88;;;2.70;99.90;;;;;;5043817;28;20025;-79
2022/03/16 06:08:52;;;;;;;51.90;28.23;;;2.80;99.90;;;;;;5048993;28;20535;-79
2022/03/16 06:11:17;;;;;;;57.65;29.25;;;2.90;99.90;;;;;;5057549;28;20021;-79
2022/03/16 06:13:43;;;;;;;58.47;28.65;;;2.90;99.90;;;;;;5050805;28;20049;-78
2022/03/16 06:16:08;;;;;;;58.95;28.33;;;3.00;99.90;;;;;;5053763;28;20029;-78
2022/03/16 06:18:34;;;;;;;59.55;29.42;;;3.00;99.90;;;;;;5057251;28;20048;-78
2022/03/16 06:21:00;;;;;;;52.22;26.67;;;3.20;99.90;;;;;;5055113;28;20028;-79
2022/03/16 06:23:25;;;;;;;56.83;28.58;;;3.20;99.90;;;;;;5056115;28;20029;-79
2022/03/16 06:25:51;;;;;;;53.55;28.02;;;3.30;99.90;;;;;;5051287;28;20022;-79
2022/03/16 06:28:16;;;;;;;66.45;31.30;;;3.40;99.90;;;;;;5046638;28;20129;-78
2022/03/16 06:30:42;;;;;;;64.60;32.50;;;3.40;99.90;;;;;;5043664;28;20677;-78
2022/03/16 06:33:07;;;;;;;63.35;29.65;;;3.50;99.90;;;;;;5051226;28;20473;-81
2022/03/16 06:35:34;;;;;;;60.92;30.42;;;3.50;99.90;;;;;;5065914;28;20029;-80
2022/03/16 06:37:59;;;;;;;60.97;29.88;;;3.50;99.90;;;;;;5054004;28;20025;-78
2022/03/16 06:40:25;;;;;;;63.20;30.25;;;3.60;99.90;;;;;;5062527;28;20060;-80
2022/03/16 06:42:58;;;;;;;57.75;28.80;;;3.70;99.90;;;;;;5062582;28;20025;-79
2022/03/16 06:45:28;;;;;;;62.30;31.08;;;3.80;99.90;;;;;;5051843;28;20042;-78
2022/03/16 06:47:55;;;;;;;63.42;31.35;;;3.90;99.90;;;;;;5048561;28;20026;-79
2022/03/16 06:50:20;;;;;;;59.85;30.50;;;4.00;99.90;;;;;;5052205;28;20040;-79
2022/03/16 06:52:47;;;;;;;66.80;32.42;;;4.10;99.90;;;;;;5050562;28;20484;-80
2022/03/16 06:55:13;;;;;;;62.17;32.05;;;4.20;99.90;;;;;;5065683;28;20029;-80
2022/03/16 06:57:39;;;;;;;62.17;32.30;;;4.30;99.90;;;;;;5052387;28;20020;-78
2022/03/16 07:00:07;;;;;;;70.18;33.10;;;4.30;99.90;;;;;;5065685;28;20032;-80
2022/03/16 07:02:57;;;;;;;67.20;33.65;;;4.40;99.90;;;;;;5051741;28;20127;-80
2022/03/16 07:05:42;;;;;;;66.78;33.13;;;4.50;99.90;;;;;;5062351;28;20033;-80
2022/03/16 07:08:10;;;;;;;61.60;30.52;;;4.60;99.90;;;;;;5054489;28;20416;-81
2022/03/16 07:10:37;;;;;;;56.58;32.40;;;4.60;99.90;;;;;;5053030;28;20036;-80
2022/03/16 07:13:03;;;;;;;60.10;32.55;;;4.70;99.90;;;;;;5058195;28;20021;-81
2022/03/16 07:15:33;;;;;;;65.00;31.40;;;4.80;99.90;;;;;;5044470;28;20112;-80
2022/03/16 07:18:01;;;;;;;58.08;31.80;;;4.90;99.90;;;;;;5059830;28;20021;-80
2022/03/16 07:20:26;;;;;;;60.88;31.48;;;5.20;99.90;;;;;;5063701;28;20088;-79
2022/03/16 07:23:13;;;;;;;57.03;30.98;;;5.20;99.90;;;;;;5061964;28;20032;-79
2022/03/16 07:25:44;;;;;;;56.47;32.22;;;5.40;99.90;;;;;;5063917;28;20036;-79
2022/03/16 07:28:10;;;;;;;63.72;34.05;;;5.60;99.90;;;;;;5061447;28;20051;-79
2022/03/16 07:30:37;;;;;;;57.88;30.30;;;5.60;99.90;;;;;;5062323;28;20021;-79
2022/03/16 07:33:05;;;;;;;63.88;34.55;;;5.90;99.90;;;;;;5052454;28;20032;-79
2022/03/16 07:35:31;;;;;;;63.25;34.25;;;6.40;25.90;;;;;;5057189;28;20091;-80
2022/03/16 07:37:58;;;;;;;65.65;34.72;;;6.60;1.00;;;;;;5049994;28;20075;-80
2022/03/16 07:40:24;;;;;;;58.60;32.58;;;6.90;1.00;;;;;;5053525;28;20032;-79
2022/03/16 07:42:51;;;;;;;59.13;33.95;;;6.90;99.90;;;;;;5054219;28;20032;-80
2022/03/16 07:45:21;;;;;;;59.47;32.60;;;7.20;99.90;;;;;;5054427;28;20045;-80
2022/03/16 07:47:52;;;;;;;56.25;32.42;;;7.30;99.90;;;;;;5058261;28;20435;-80
2022/03/16 07:50:18;;;;;;;53.45;31.73;;;7.10;99.90;;;;;;5052676;28;20033;-79
2022/03/16 07:52:44;;;;;;;55.90;31.25;;;7.30;99.90;;;;;;5059077;28;20108;-79
2022/03/16 07:55:11;;;;;;;54.05;30.27;;;7.70;99.90;;;;;;5053352;28;20036;-80
2022/03/16 07:57:37;;;;;;;56.38;33.33;;;8.60;27.70;;;;;;5050831;28;20025;-81
2022/03/16 08:00:10;;;;;;;59.35;33.53;;;9.50;1.00;;;;;;5059318;28;20025;-81
2022/03/16 08:02:37;;;;;;;49.60;29.70;;;9.80;99.90;;;;;;5052269;28;20253;-81
2022/03/16 08:05:03;;;;;;;47.35;28.00;;;9.60;99.90;;;;;;5055306;28;20094;-81
2022/03/16 08:07:29;;;;;;;52.25;30.15;;;10.20;99.90;;;;;;5058157;28;20029;-81
2022/03/16 08:09:56;;;;;;;51.55;30.65;;;12.00;99.90;;;;;;5046701;28;20039;-80
2022/03/16 08:12:22;;;;;;;48.55;28.48;;;13.40;99.90;;;;;;5055724;28;20040;-81
2022/03/16 08:14:48;;;;;;;45.47;28.13;;;13.30;99.90;;;;;;5056028;28;20512;-81
2022/03/16 08:17:13;;;;;;;44.67;25.92;;;15.30;99.90;;;;;;5056003;28;20131;-80
2022/03/16 08:19:39;;;;;;;45.10;26.17;;;15.10;99.90;;;;;;5060845;28;20155;-81
2022/03/16 08:22:04;;;;;;;44.50;27.13;;;14.30;99.90;;;;;;5051703;28;20174;-81
2022/03/16 08:24:30;;;;;;;43.53;28.05;;;13.90;99.90;;;;;;5060022;28;20056;-80
2022/03/16 08:26:55;;;;;;;49.67;26.27;;;12.10;99.90;;;;;;5055746;28;20086;-80
2022/03/16 08:29:21;;;;;;;41.08;27.15;;;12.20;99.90;;;;;;5047336;28;20029;-81
2022/03/16 08:31:47;;;;;;;38.28;24.55;;;12.00;99.90;;;;;;5047980;28;20022;-81
2022/03/16 08:34:13;;;;;;;40.90;26.15;;;11.70;99.90;;;;;;5056179;28;20504;-81
2022/03/16 08:36:39;;;;;;;43.25;27.33;;;11.90;99.90;;;;;;5056466;28;20033;-81
2022/03/16 08:39:06;;;;;;;39.78;26.17;;;12.00;99.90;;;;;;5052582;28;20433;-81
2022/03/16 08:41:33;;;;;;;38.92;26.85;;;12.40;99.90;;;;;;5054180;28;20029;-81
2022/03/16 08:43:59;;;;;;;34.30;24.20;;;13.10;99.90;;;;;;5057463;28;20021;-81
2022/03/16 08:46:24;;;;;;;35.45;24.25;;;14.60;99.90;;;;;;5048019;28;20480;-80
2022/03/16 08:48:50;;;;;;;30.52;20.80;;;16.00;99.90;;;;;;5048413;28;20047;-79
2022/03/16 08:51:15;;;;;;;36.20;22.73;;;16.70;99.90;;;;;;5058648;28;20476;-78
2022/03/16 08:53:41;;;;;;;32.60;20.30;;;17.90;99.90;;;;;;5061946;28;20056;-81
2022/03/16 08:56:12;;;;;;;31.83;21.83;;;16.60;99.90;;;;;;5050996;28;20041;-78
2022/03/16 08:58:37;;;;;;;30.40;22.20;;;14.70;99.90;;;;;;5045232;28;20700;-80
2022/03/16 09:01:04;;;;;;;29.58;20.35;;;17.10;99.90;;;;;;5046335;28;20325;-81
2022/03/16 09:03:29;;;;;;;26.92;18.95;;;17.20;99.90;;;;;;5044821;28;20511;-80
2022/03/16 09:05:55;;;;;;;22.95;17.35;;;17.70;99.90;;;;;;5043485;28;20104;-79
2022/03/16 09:08:20;;;;;;;24.42;17.50;;;17.50;99.90;;;;;;5053721;28;20032;-79
2022/03/16 09:10:47;;;;;;;26.80;17.02;;;16.80;99.90;;;;;;5054214;28;20013;-80
2022/03/16 09:13:15;;;;;;;23.20;16.23;;;17.70;99.90;;;;;;5042599;28;20076;-79
2022/03/16 09:15:42;;;;;;;19.88;14.82;;;18.30;99.90;;;;;;5033729;28;20021;-79
2022/03/16 09:18:09;;;;;;;21.95;14.25;;;17.40;99.90;;;;;;5052450;28;20027;-79
2022/03/16 09:20:34;;;;;;;24.33;16.10;;;17.40;99.90;;;;;;5065977;28;20044;-79
2022/03/16 09:23:01;;;;;;;21.25;14.43;;;18.80;99.90;;;;;;5062252;28;20021;-81
2022/03/16 09:25:26;;;;;;;18.38;13.32;;;18.80;99.90;;;;;;5064156;28;20017;-82
2022/03/16 09:27:52;;;;;;;18.50;12.93;;;17.70;99.90;;;;;;5059366;28;20025;-81
2022/03/16 09:30:19;;;;;;;17.42;11.15;;;20.00;99.90;;;;;;5048059;28;20068;-81
2022/03/16 09:32:45;;;;;;;18.05;12.55;;;19.50;99.90;;;;;;5034312;28;20053;-81
2022/03/16 09:35:10;;;;;;;16.15;12.07;;;19.10;99.90;;;;;;5038974;28;20035;-81
2022/03/16 09:38:32;;;;;;;17.83;12.60;;;19.40;99.90;;;;;;5048393;28;20131;-81
2022/03/16 09:40:57;;;;;;;17.10;11.93;;;19.90;99.90;;;;;;5045466;28;20029;-79
2022/03/16 09:43:23;;;;;;;20.00;13.07;;;19.90;99.90;;;;;;5055195;28;20049;-81
2022/03/16 09:46:06;;;;;;;15.88;11.60;;;18.30;99.90;;;;;;5039935;28;20030;-80
2022/03/16 09:48:32;;;;;;;18.52;12.07;;;18.40;99.90;;;;;;5036496;28;20035;-80
2022/03/16 09:50:58;;;;;;;18.45;13.18;;;17.10;99.90;;;;;;5054710;28;20021;-81
2022/03/16 09:53:28;;;;;;;18.23;12.45;;;18.10;99.90;;;;;;5040901;28;20025;-82
2022/03/16 09:55:55;;;;;;;19.02;11.13;;;19.30;99.90;;;;;;5066973;28;20088;-79
2022/03/16 09:58:21;;;;;;;18.40;12.75;;;17.10;99.90;;;;;;5061167;28;20041;-79
2022/03/16 10:00:47;;;;;;;18.17;12.77;;;16.80;99.90;;;;;;5057175;28;20028;-79
2022/03/16 10:03:15;;;;;;;20.17;12.30;;;16.10;99.90;;;;;;5046112;28;20033;-81
2022/03/16 10:05:41;;;;;;;19.48;11.88;;;17.00;99.90;;;;;;5058264;28;20029;-81
2022/03/16 10:08:29;;;;;;;17.05;10.93;;;18.80;99.90;;;;;;5062535;28;20033;-79
2022/03/16 10:13:48;;;;;;;17.70;11.35;;;18.50;99.90;;;;;;5055202;28;20052;-80
2022/03/16 10:16:13;;;;;;;19.42;11.30;;;17.90;99.90;;;;;;5060678;28;20033;-81
2022/03/16 10:18:39;;;;;;;16.45;11.13;;;18.30;99.90;;;;;;5051041;28;20017;-80
2022/03/16 10:21:05;;;;;;;18.38;11.52;;;17.10;99.90;;;;;;5049286;28;20277;-81
2022/03/16 10:23:30;;;;;;;15.98;11.10;;;16.30;99.90;;;;;;5054521;28;20029;-82
2022/03/16 10:26:00;;;;;;;16.75;11.13;;;17.60;99.90;;;;;;5050727;28;20032;-81
2022/03/16 10:28:28;;;;;;;17.17;11.02;;;18.40;99.90;;;;;;5042432;28;20546;-81
2022/03/16 10:30:59;;;;;;;17.27;10.27;;;18.30;99.90;;;;;;5046014;28;20025;-81
2022/03/16 10:33:30;;;;;;;14.68;10.55;;;15.90;99.90;;;;;;5061158;28;20048;-80
2022/03/16 10:36:05;;;;;;;15.32;10.38;;;15.80;99.90;;;;;;5061602;28;20021;-80
2022/03/16 10:38:52;;;;;;;15.07;10.25;;;17.10;99.90;;;;;;5061796;28;20021;-80
2022/03/16 10:47:08;;;;;;;13.23;8.45;;;18.60;99.90;;;;;;5048426;28;20040;-79
2022/03/16 10:49:34;;;;;;;14.05;9.68;;;17.90;99.90;;;;;;5045286;28;20040;-79
2022/03/16 10:52:10;;;;;;;16.10;9.68;;;16.30;99.90;;;;;;5048720;28;20022;-79
2022/03/16 10:54:37;;;;;;;13.90;8.85;;;16.10;99.90;;;;;;5052357;28;20017;-79
2022/03/16 10:57:05;;;;;;;15.18;9.43;;;17.10;99.90;;;;;;5045701;28;20029;-79
2022/03/16 10:59:33;;;;;;;14.93;9.60;;;15.80;99.90;;;;;;5045470;28;20076;-79
2022/03/16 11:02:12;;;;;;;15.68;9.73;;;15.20;99.90;;;;;;5038472;28;20052;-80
2022/03/16 11:04:39;;;;;;;15.00;9.27;;;15.00;99.90;;;;;;5041346;28;20100;-80
2022/03/16 11:07:06;;;;;;;17.23;10.18;;;15.50;99.90;;;;;;5054734;28;20025;-81
2022/03/16 11:09:32;;;;;;;13.73;9.05;;;15.90;99.90;;;;;;5048125;28;20045;-80
2022/03/16 11:14:44;;;;;;;15.65;9.60;;;15.80;99.90;;;;;;5066452;28;20060;-81
2022/03/16 11:17:11;;;;;;;16.67;10.70;;;15.60;99.90;;;;;;5043254;28;20048;-81
2022/03/16 11:19:38;;;;;;;13.65;8.68;;;15.50;99.90;;;;;;5052324;28;20052;-81
2022/03/16 11:22:23;;;;;;;12.95;7.53;;;15.50;99.90;;;;;;5055214;28;20017;-80
2022/03/16 11:24:58;;;;;;;12.05;7.90;;;14.90;99.90;;;;;;5038972;28;20025;-79
2022/03/16 11:27:53;;;;;;;12.30;8.13;;;15.00;99.90;;;;;;5044212;28;20111;-80
2022/03/16 11:30:29;;;;;;;11.20;8.15;;;15.30;99.90;;;;;;5046914;28;20946;-80
2022/03/16 11:33:16;;;;;;;11.35;7.68;;;15.00;99.90;;;;;;5050682;28;20046;-79
2022/03/16 11:35:50;;;;;;;12.95;9.13;;;15.40;99.90;;;;;;5054720;28;20025;-78
2022/03/16 11:38:17;;;;;;;11.95;8.40;;;15.60;99.90;;;;;;5047440;28;20039;-81
2022/03/16 11:40:49;;;;;;;11.10;8.23;;;15.40;99.90;;;;;;5050126;28;20408;-81
2022/03/16 11:43:25;;;;;;;12.40;8.38;;;15.30;99.90;;;;;;5045136;28;20388;-81
2022/03/16 11:45:57;;;;;;;15.10;7.93;;;15.30;99.90;;;;;;5045396;28;20413;-81
2022/03/16 11:48:31;;;;;;;15.35;9.48;;;14.90;99.90;;;;;;5055283;28;20029;-81
2022/03/16 11:51:14;;;;;;;13.80;9.35;;;15.40;99.90;;;;;;5049566;28;20077;-81
2022/03/16 11:53:58;;;;;;;13.73;9.80;;;15.20;99.90;;;;;;5045497;28;20048;-82
2022/03/16 11:56:26;;;;;;;14.38;9.05;;;14.90;99.90;;;;;;5053639;28;20033;-81
2022/03/16 11:59:02;;;;;;;11.38;8.02;;;15.40;99.90;;;;;;5048922;28;20459;-80
2022/03/16 12:01:32;;;;;;;13.57;8.27;;;15.00;99.90;;;;;;5051354;28;20035;-81
2022/03/16 12:04:15;;;;;;;13.93;8.80;;;14.90;99.90;;;;;;5045186;28;20372;-80
2022/03/16 12:07:08;;;;;;;13.00;8.98;;;15.40;99.90;;;;;;5042708;28;20048;-80
2022/03/16 12:10:01;;;;;;;13.77;9.38;;;15.70;99.90;;;;;;5038630;28;20030;-82
2022/03/16 12:12:54;;;;;;;14.57;8.77;;;15.60;99.90;;;;;;5034905;28;20487;-82
2022/03/16 12:15:29;;;;;;;12.10;8.10;;;16.00;99.90;;;;;;5041706;28;20092;-81
2022/03/16 12:18:01;;;;;;;14.80;9.10;;;15.70;99.90;;;;;;5047488;28;20025;-81
2022/03/16 12:20:37;;;;;;;11.43;7.88;;;15.20;99.90;;;;;;5057326;28;20051;-81
2022/03/16 12:23:09;;;;;;;11.40;7.72;;;15.70;99.90;;;;;;5049193;28;20063;-82
2022/03/16 12:25:36;;;;;;;9.60;7.50;;;15.70;99.90;;;;;;5044575;28;20071;-81
2022/03/16 12:30:56;;;;;;;10.48;7.55;;;15.50;99.90;;;;;;5044451;28;20031;-81
2022/03/16 12:33:23;;;;;;;11.10;7.47;;;15.30;99.90;;;;;;5048322;28;20053;-81
2022/03/16 12:35:59;;;;;;;10.95;8.27;;;15.50;99.90;;;;;;5053288;28;20056;-81
2022/03/16 12:38:35;;;;;;;13.43;8.18;;;15.40;99.90;;;;;;5046754;28;20029;-81
2022/03/16 12:43:53;;;;;;;10.60;8.05;;;16.20;99.90;;;;;;5050907;28;20051;-81
2022/03/16 12:46:34;;;;;;;12.82;8.10;;;15.80;99.90;;;;;;5049442;28;20061;-82
2022/03/16 12:49:04;;;;;;;11.25;8.18;;;15.60;99.90;;;;;;5038307;28;20100;-81
2022/03/16 12:51:45;;;;;;;;;;;15.70;99.90;;;;;;5039664;28;20022;-81
2022/03/16 12:54:32;;;;;;;12.10;8.43;;;15.20;99.90;;;;;;5041003;28;19909;-81
2022/03/16 12:57:06;;;;;;;13.38;8.70;;;15.00;99.90;;;;;;5040348;28;20026;-82
2022/03/16 12:59:36;;;;;;;14.25;8.70;;;15.70;99.90;;;;;;5036716;28;20104;-81